sensor_id;sensor_type;location;lat;lon;timestamp;P1;durP1;ratioP1;P2;durP2;ratioP2
23866;SDS011;12114;53.404;-1.502;2022-10-16T00:00:26;11.60;;;2.45;;
23866;SDS011;12114;53.404;-1.502;2022-10-16T00:02:52;9.75;;;2.00;;
23866;SDS011;12114;53.404;-1.502;2022-10-16T00:05:17;8.43;;;1.50;;
23866;SDS011;12114;53.404;-1.502;2022-10-16T00:07:43;9.95;;;1.95;;
23866;SDS011;12114;53.404;-1.502;2022-10-16T00:10:08;9.82;;;2.53;;
23866;SDS011;12114;53.404;-1.502;2022-10-16T00:12:34;11.07;;;3.05;;
23866;SDS011;12114;53.404;-1.502;2022-10-16T00:14:59;14.13;;;3.88;;
23866;SDS011;12114;53.404;-1.502;2022-10-16T00:17:24;8.20;;;2.05;;
23866;SDS011;12114;53.404;-1.502;2022-10-16T00:19:50;20.55;;;9.77;;
23866;SDS011;12114;53.404;-1.502;2022-10-16T00:22:15;11.60;;;2.10;;
23866;SDS011;12114;53.404;-1.502;2022-10-16T00:24:41;12.23;;;2.85;;
23866;SDS011;12114;53.404;-1.502;2022-10-16T00:27:07;13.35;;;2.20;;
23866;SDS011;12114;53.404;-1.502;2022-10-16T00:29:32;17.85;;;5.45;;
23866;SDS011;12114;53.404;-1.502;2022-10-16T00:31:58;21.77;;;7.78;;
23866;SDS011;12114;53.404;-1.502;2022-10-16T00:34:23;11.77;;;2.42;;
23866;SDS011;12114;53.404;-1.502;2022-10-16T00:36:48;17.13;;;5.40;;
23866;SDS011;12114;53.404;-1.502;2022-10-16T00:39:14;15.45;;;6.07;;
23866;SDS011;12114;53.404;-1.502;2022-10-16T00:41:39;10.10;;;2.22;;
23866;SDS011;12114;53.404;-1.502;2022-10-16T00:44:41;29.23;;;10.23;;
23866;SDS011;12114;53.404;-1.502;2022-10-16T00:46:50;19.92;;;6.03;;
23866;SDS011;12114;53.404;-1.502;2022-10-16T00:49:16;36.95;;;15.15;;
23866;SDS011;12114;53.404;-1.502;2022-10-16T00:51:47;15.63;;;2.15;;
23866;SDS011;12114;53.404;-1.502;2022-10-16T00:54:17;23.67;;;6.32;;
23866;SDS011;12114;53.404;-1.502;2022-10-16T00:56:44;10.15;;;1.77;;
23866;SDS011;12114;53.404;-1.502;2022-10-16T00:59:15;14.00;;;2.17;;
23866;SDS011;12114;53.404;-1.502;2022-10-16T01:01:40;26.20;;;8.55;;
23866;SDS011;12114;53.404;-1.502;2022-10-16T01:04:06;39.88;;;17.30;;
23866;SDS011;12114;53.404;-1.502;2022-10-16T01:11:48;15.13;;;2.63;;
23866;SDS011;12114;53.404;-1.502;2022-10-16T01:14:19;14.60;;;2.25;;
23866;SDS011;12114;53.404;-1.502;2022-10-16T01:16:49;14.60;;;2.70;;
23866;SDS011;12114;53.404;-1.502;2022-10-16T01:22:04;13.07;;;1.90;;
23866;SDS011;12114;53.404;-1.502;2022-10-16T01:24:38;9.25;;;1.85;;
23866;SDS011;12114;53.404;-1.502;2022-10-16T01:27:12;11.88;;;1.65;;
23866;SDS011;12114;53.404;-1.502;2022-10-16T01:29:44;12.70;;;2.20;;
23866;SDS011;12114;53.404;-1.502;2022-10-16T01:34:50;10.65;;;1.77;;
23866;SDS011;12114;53.404;-1.502;2022-10-16T01:37:22;13.50;;;1.92;;
23866;SDS011;12114;53.404;-1.502;2022-10-16T01:39:50;12.18;;;1.45;;
23866;SDS011;12114;53.404;-1.502;2022-10-16T01:44:41;6.18;;;1.10;;
23866;SDS011;12114;53.404;-1.502;2022-10-16T01:47:08;6.40;;;1.10;;
23866;SDS011;12114;53.404;-1.502;2022-10-16T01:49:36;5.32;;;1.10;;
23866;SDS011;12114;53.404;-1.502;2022-10-16T01:52:03;7.00;;;1.25;;
23866;SDS011;12114;53.404;-1.502;2022-10-16T01:54:30;6.82;;;1.20;;
23866;SDS011;12114;53.404;-1.502;2022-10-16T01:56:56;8.82;;;1.45;;
23866;SDS011;12114;53.404;-1.502;2022-10-16T01:59:23;9.13;;;1.40;;
23866;SDS011;12114;53.404;-1.502;2022-10-16T02:01:51;10.90;;;1.35;;
23866;SDS011;12114;53.404;-1.502;2022-10-16T02:04:38;6.57;;;1.00;;
23866;SDS011;12114;53.404;-1.502;2022-10-16T02:07:04;7.32;;;1.25;;
23866;SDS011;12114;53.404;-1.502;2022-10-16T02:09:31;5.68;;;1.20;;
23866;SDS011;12114;53.404;-1.502;2022-10-16T02:11:58;7.30;;;0.90;;
23866;SDS011;12114;53.404;-1.502;2022-10-16T02:14:24;7.47;;;1.05;;
23866;SDS011;12114;53.404;-1.502;2022-10-16T02:16:50;5.57;;;1.00;;
23866;SDS011;12114;53.404;-1.502;2022-10-16T02:19:16;8.48;;;1.20;;
23866;SDS011;12114;53.404;-1.502;2022-10-16T02:24:15;6.30;;;1.00;;
23866;SDS011;12114;53.404;-1.502;2022-10-16T02:26:48;5.78;;;1.10;;
23866;SDS011;12114;53.404;-1.502;2022-10-16T02:29:16;8.15;;;1.27;;
23866;SDS011;12114;53.404;-1.502;2022-10-16T02:31:43;7.65;;;1.00;;
23866;SDS011;12114;53.404;-1.502;2022-10-16T02:34:10;6.45;;;1.15;;
23866;SDS011;12114;53.404;-1.502;2022-10-16T02:36:37;5.05;;;1.00;;
23866;SDS011;12114;53.404;-1.502;2022-10-16T02:39:02;6.40;;;0.98;;
23866;SDS011;12114;53.404;-1.502;2022-10-16T02:41:30;7.88;;;0.82;;
23866;SDS011;12114;53.404;-1.502;2022-10-16T02:43:55;5.13;;;0.98;;
23866;SDS011;12114;53.404;-1.502;2022-10-16T02:46:20;6.93;;;1.27;;
23866;SDS011;12114;53.404;-1.502;2022-10-16T02:48:46;6.15;;;0.85;;
23866;SDS011;12114;53.404;-1.502;2022-10-16T02:51:11;4.40;;;0.70;;
23866;SDS011;12114;53.404;-1.502;2022-10-16T02:53:37;5.38;;;1.02;;
23866;SDS011;12114;53.404;-1.502;2022-10-16T02:56:02;8.75;;;1.15;;
23866;SDS011;12114;53.404;-1.502;2022-10-16T02:58:28;6.68;;;1.05;;
23866;SDS011;12114;53.404;-1.502;2022-10-16T03:00:54;7.80;;;1.00;;
23866;SDS011;12114;53.404;-1.502;2022-10-16T03:03:19;6.82;;;1.15;;
23866;SDS011;12114;53.404;-1.502;2022-10-16T03:05:45;6.03;;;0.80;;
23866;SDS011;12114;53.404;-1.502;2022-10-16T03:08:11;7.25;;;1.00;;
23866;SDS011;12114;53.404;-1.502;2022-10-16T03:10:36;6.68;;;1.08;;
23866;SDS011;12114;53.404;-1.502;2022-10-16T03:13:01;5.30;;;1.13;;
23866;SDS011;12114;53.404;-1.502;2022-10-16T03:15:27;5.10;;;1.23;;
23866;SDS011;12114;53.404;-1.502;2022-10-16T03:17:54;3.50;;;1.08;;
23866;SDS011;12114;53.404;-1.502;2022-10-16T03:20:19;7.88;;;1.40;;
23866;SDS011;12114;53.404;-1.502;2022-10-16T03:22:45;4.53;;;1.02;;
23866;SDS011;12114;53.404;-1.502;2022-10-16T03:25:10;9.23;;;1.08;;
23866;SDS011;12114;53.404;-1.502;2022-10-16T03:27:35;8.40;;;1.17;;
23866;SDS011;12114;53.404;-1.502;2022-10-16T03:30:01;6.70;;;0.95;;
23866;SDS011;12114;53.404;-1.502;2022-10-16T03:32:26;9.52;;;1.20;;
23866;SDS011;12114;53.404;-1.502;2022-10-16T03:34:53;6.47;;;1.10;;
23866;SDS011;12114;53.404;-1.502;2022-10-16T03:37:19;4.40;;;0.95;;
23866;SDS011;12114;53.404;-1.502;2022-10-16T03:39:45;9.63;;;1.30;;
23866;SDS011;12114;53.404;-1.502;2022-10-16T03:42:10;8.82;;;1.52;;
23866;SDS011;12114;53.404;-1.502;2022-10-16T03:44:36;5.55;;;0.85;;
23866;SDS011;12114;53.404;-1.502;2022-10-16T03:47:01;2.70;;;0.90;;
23866;SDS011;12114;53.404;-1.502;2022-10-16T03:49:27;4.93;;;1.10;;
23866;SDS011;12114;53.404;-1.502;2022-10-16T03:51:55;4.78;;;0.93;;
23866;SDS011;12114;53.404;-1.502;2022-10-16T03:54:20;5.13;;;0.80;;
23866;SDS011;12114;53.404;-1.502;2022-10-16T03:56:47;6.53;;;1.20;;
23866;SDS011;12114;53.404;-1.502;2022-10-16T03:59:12;6.53;;;1.00;;
23866;SDS011;12114;53.404;-1.502;2022-10-16T04:01:38;4.85;;;1.00;;
23866;SDS011;12114;53.404;-1.502;2022-10-16T04:04:03;7.88;;;1.05;;
23866;SDS011;12114;53.404;-1.502;2022-10-16T04:06:28;4.78;;;1.00;;
23866;SDS011;12114;53.404;-1.502;2022-10-16T04:08:53;3.03;;;0.88;;
23866;SDS011;12114;53.404;-1.502;2022-10-16T04:11:19;8.20;;;1.48;;
23866;SDS011;12114;53.404;-1.502;2022-10-16T04:13:44;10.73;;;1.85;;
23866;SDS011;12114;53.404;-1.502;2022-10-16T04:16:10;5.43;;;0.88;;
23866;SDS011;12114;53.404;-1.502;2022-10-16T04:18:36;5.28;;;0.90;;
23866;SDS011;12114;53.404;-1.502;2022-10-16T04:21:02;5.30;;;1.33;;
23866;SDS011;12114;53.404;-1.502;2022-10-16T04:23:27;5.05;;;1.00;;
23866;SDS011;12114;53.404;-1.502;2022-10-16T04:25:52;5.93;;;0.95;;
23866;SDS011;12114;53.404;-1.502;2022-10-16T04:28:18;4.35;;;1.00;;
23866;SDS011;12114;53.404;-1.502;2022-10-16T04:30:43;6.97;;;1.20;;
23866;SDS011;12114;53.404;-1.502;2022-10-16T04:33:09;5.43;;;1.17;;
23866;SDS011;12114;53.404;-1.502;2022-10-16T04:35:35;3.60;;;1.27;;
23866;SDS011;12114;53.404;-1.502;2022-10-16T04:38:00;5.03;;;0.90;;
23866;SDS011;12114;53.404;-1.502;2022-10-16T04:40:26;7.80;;;1.10;;
23866;SDS011;12114;53.404;-1.502;2022-10-16T04:42:51;5.60;;;1.00;;
23866;SDS011;12114;53.404;-1.502;2022-10-16T04:45:16;5.18;;;0.68;;
23866;SDS011;12114;53.404;-1.502;2022-10-16T04:47:42;4.22;;;1.05;;
23866;SDS011;12114;53.404;-1.502;2022-10-16T04:50:07;5.72;;;0.98;;
23866;SDS011;12114;53.404;-1.502;2022-10-16T04:52:33;7.07;;;0.90;;
23866;SDS011;12114;53.404;-1.502;2022-10-16T04:54:58;4.20;;;0.90;;
23866;SDS011;12114;53.404;-1.502;2022-10-16T04:57:27;8.43;;;1.10;;
23866;SDS011;12114;53.404;-1.502;2022-10-16T04:59:52;8.48;;;0.90;;
23866;SDS011;12114;53.404;-1.502;2022-10-16T05:02:18;7.35;;;1.10;;
23866;SDS011;12114;53.404;-1.502;2022-10-16T05:04:43;6.93;;;0.80;;
23866;SDS011;12114;53.404;-1.502;2022-10-16T05:07:08;5.80;;;0.60;;
23866;SDS011;12114;53.404;-1.502;2022-10-16T05:09:34;5.30;;;0.70;;
23866;SDS011;12114;53.404;-1.502;2022-10-16T05:12:00;4.63;;;0.90;;
23866;SDS011;12114;53.404;-1.502;2022-10-16T05:14:25;9.90;;;1.00;;
23866;SDS011;12114;53.404;-1.502;2022-10-16T05:16:51;9.85;;;1.40;;
23866;SDS011;12114;53.404;-1.502;2022-10-16T05:19:17;2.97;;;0.80;;
23866;SDS011;12114;53.404;-1.502;2022-10-16T05:21:42;9.30;;;0.70;;
23866;SDS011;12114;53.404;-1.502;2022-10-16T05:24:07;8.15;;;1.17;;
23866;SDS011;12114;53.404;-1.502;2022-10-16T05:26:34;5.80;;;0.70;;
23866;SDS011;12114;53.404;-1.502;2022-10-16T05:28:59;8.57;;;1.05;;
23866;SDS011;12114;53.404;-1.502;2022-10-16T05:31:25;5.18;;;0.80;;
23866;SDS011;12114;53.404;-1.502;2022-10-16T05:33:50;5.43;;;0.68;;
23866;SDS011;12114;53.404;-1.502;2022-10-16T05:36:15;3.85;;;0.70;;
23866;SDS011;12114;53.404;-1.502;2022-10-16T05:38:41;4.85;;;0.82;;
23866;SDS011;12114;53.404;-1.502;2022-10-16T05:41:06;4.68;;;0.60;;
23866;SDS011;12114;53.404;-1.502;2022-10-16T05:43:32;3.13;;;0.43;;
23866;SDS011;12114;53.404;-1.502;2022-10-16T05:46:01;5.03;;;0.70;;
23866;SDS011;12114;53.404;-1.502;2022-10-16T05:48:26;5.13;;;0.85;;
23866;SDS011;12114;53.404;-1.502;2022-10-16T05:51:03;3.88;;;0.63;;
23866;SDS011;12114;53.404;-1.502;2022-10-16T05:53:30;5.70;;;1.27;;
23866;SDS011;12114;53.404;-1.502;2022-10-16T05:55:56;4.53;;;0.80;;
23866;SDS011;12114;53.404;-1.502;2022-10-16T05:58:22;6.20;;;0.63;;
23866;SDS011;12114;53.404;-1.502;2022-10-16T06:00:57;6.50;;;0.95;;
23866;SDS011;12114;53.404;-1.502;2022-10-16T06:03:23;7.75;;;0.63;;
23866;SDS011;12114;53.404;-1.502;2022-10-16T06:05:49;3.30;;;0.50;;
23866;SDS011;12114;53.404;-1.502;2022-10-16T06:08:14;1.17;;;0.35;;
23866;SDS011;12114;53.404;-1.502;2022-10-16T06:10:40;5.90;;;0.80;;
23866;SDS011;12114;53.404;-1.502;2022-10-16T06:13:05;4.50;;;0.70;;
23866;SDS011;12114;53.404;-1.502;2022-10-16T06:15:30;5.43;;;0.88;;
23866;SDS011;12114;53.404;-1.502;2022-10-16T06:17:55;2.60;;;0.93;;
23866;SDS011;12114;53.404;-1.502;2022-10-16T06:20:21;5.15;;;0.90;;
23866;SDS011;12114;53.404;-1.502;2022-10-16T06:22:46;2.78;;;0.63;;
23866;SDS011;12114;53.404;-1.502;2022-10-16T06:25:12;3.13;;;0.60;;
23866;SDS011;12114;53.404;-1.502;2022-10-16T06:27:39;6.80;;;0.63;;
23866;SDS011;12114;53.404;-1.502;2022-10-16T06:30:05;5.43;;;0.75;;
23866;SDS011;12114;53.404;-1.502;2022-10-16T06:32:30;5.47;;;0.63;;
23866;SDS011;12114;53.404;-1.502;2022-10-16T06:34:55;3.45;;;0.60;;
23866;SDS011;12114;53.404;-1.502;2022-10-16T06:37:21;5.03;;;0.70;;
23866;SDS011;12114;53.404;-1.502;2022-10-16T06:39:47;3.38;;;0.50;;
23866;SDS011;12114;53.404;-1.502;2022-10-16T06:42:12;6.40;;;0.73;;
23866;SDS011;12114;53.404;-1.502;2022-10-16T06:44:39;2.45;;;0.50;;
23866;SDS011;12114;53.404;-1.502;2022-10-16T06:47:04;3.63;;;0.60;;
23866;SDS011;12114;53.404;-1.502;2022-10-16T06:49:33;2.25;;;0.45;;
23866;SDS011;12114;53.404;-1.502;2022-10-16T06:52:00;3.78;;;0.70;;
23866;SDS011;12114;53.404;-1.502;2022-10-16T06:54:27;6.10;;;0.90;;
23866;SDS011;12114;53.404;-1.502;2022-10-16T06:56:53;3.53;;;0.57;;
23866;SDS011;12114;53.404;-1.502;2022-10-16T06:59:20;4.07;;;0.77;;
23866;SDS011;12114;53.404;-1.502;2022-10-16T07:01:46;5.80;;;0.77;;
23866;SDS011;12114;53.404;-1.502;2022-10-16T07:04:12;5.40;;;0.80;;
23866;SDS011;12114;53.404;-1.502;2022-10-16T07:06:37;4.55;;;1.33;;
23866;SDS011;12114;53.404;-1.502;2022-10-16T07:09:04;5.45;;;0.65;;
23866;SDS011;12114;53.404;-1.502;2022-10-16T07:11:29;7.63;;;0.65;;
23866;SDS011;12114;53.404;-1.502;2022-10-16T07:13:55;5.72;;;0.80;;
23866;SDS011;12114;53.404;-1.502;2022-10-16T07:16:21;5.90;;;1.15;;
23866;SDS011;12114;53.404;-1.502;2022-10-16T07:18:47;4.82;;;0.60;;
23866;SDS011;12114;53.404;-1.502;2022-10-16T07:21:17;4.40;;;0.93;;
23866;SDS011;12114;53.404;-1.502;2022-10-16T07:23:44;5.38;;;0.57;;
23866;SDS011;12114;53.404;-1.502;2022-10-16T07:26:09;6.05;;;0.70;;
23866;SDS011;12114;53.404;-1.502;2022-10-16T07:28:35;8.95;;;0.80;;
23866;SDS011;12114;53.404;-1.502;2022-10-16T07:31:02;6.45;;;0.98;;
23866;SDS011;12114;53.404;-1.502;2022-10-16T07:33:27;6.95;;;0.93;;
23866;SDS011;12114;53.404;-1.502;2022-10-16T07:35:53;6.93;;;0.73;;
23866;SDS011;12114;53.404;-1.502;2022-10-16T07:38:20;7.45;;;0.73;;
23866;SDS011;12114;53.404;-1.502;2022-10-16T07:40:46;8.63;;;0.93;;
23866;SDS011;12114;53.404;-1.502;2022-10-16T07:43:11;4.03;;;0.70;;
23866;SDS011;12114;53.404;-1.502;2022-10-16T07:45:38;4.72;;;0.60;;
23866;SDS011;12114;53.404;-1.502;2022-10-16T07:48:10;2.63;;;0.95;;
23866;SDS011;12114;53.404;-1.502;2022-10-16T07:50:36;5.72;;;0.82;;
23866;SDS011;12114;53.404;-1.502;2022-10-16T07:53:01;3.65;;;0.80;;
23866;SDS011;12114;53.404;-1.502;2022-10-16T07:55:27;3.60;;;0.68;;
23866;SDS011;12114;53.404;-1.502;2022-10-16T07:57:52;6.05;;;1.10;;
23866;SDS011;12114;53.404;-1.502;2022-10-16T08:00:17;6.03;;;0.90;;
23866;SDS011;12114;53.404;-1.502;2022-10-16T08:02:43;2.97;;;0.70;;
23866;SDS011;12114;53.404;-1.502;2022-10-16T08:05:08;5.15;;;0.90;;
23866;SDS011;12114;53.404;-1.502;2022-10-16T08:07:34;6.55;;;0.88;;
23866;SDS011;12114;53.404;-1.502;2022-10-16T08:09:59;4.07;;;0.80;;
23866;SDS011;12114;53.404;-1.502;2022-10-16T08:12:25;6.80;;;0.65;;
23866;SDS011;12114;53.404;-1.502;2022-10-16T08:14:51;5.50;;;1.02;;
23866;SDS011;12114;53.404;-1.502;2022-10-16T08:17:16;2.58;;;0.60;;
23866;SDS011;12114;53.404;-1.502;2022-10-16T08:19:45;4.63;;;0.80;;
23866;SDS011;12114;53.404;-1.502;2022-10-16T08:22:11;6.65;;;0.82;;
23866;SDS011;12114;53.404;-1.502;2022-10-16T08:24:36;5.38;;;0.85;;
23866;SDS011;12114;53.404;-1.502;2022-10-16T08:27:02;5.57;;;0.90;;
23866;SDS011;12114;53.404;-1.502;2022-10-16T08:29:27;5.97;;;0.95;;
23866;SDS011;12114;53.404;-1.502;2022-10-16T08:31:53;6.97;;;0.93;;
23866;SDS011;12114;53.404;-1.502;2022-10-16T08:34:18;6.25;;;1.30;;
23866;SDS011;12114;53.404;-1.502;2022-10-16T08:36:43;9.20;;;1.08;;
23866;SDS011;12114;53.404;-1.502;2022-10-16T08:39:09;4.95;;;1.00;;
23866;SDS011;12114;53.404;-1.502;2022-10-16T08:49:26;3.85;;;0.70;;
23866;SDS011;12114;53.404;-1.502;2022-10-16T08:51:52;8.63;;;1.13;;
23866;SDS011;12114;53.404;-1.502;2022-10-16T08:56:46;6.95;;;1.35;;
23866;SDS011;12114;53.404;-1.502;2022-10-16T08:59:11;4.68;;;0.80;;
23866;SDS011;12114;53.404;-1.502;2022-10-16T09:01:40;2.80;;;0.80;;
23866;SDS011;12114;53.404;-1.502;2022-10-16T09:06:50;6.38;;;1.40;;
23866;SDS011;12114;53.404;-1.502;2022-10-16T09:19:53;4.65;;;1.10;;
23866;SDS011;12114;53.404;-1.502;2022-10-16T09:22:21;5.00;;;0.75;;
23866;SDS011;12114;53.404;-1.502;2022-10-16T09:24:50;3.25;;;0.68;;
23866;SDS011;12114;53.404;-1.502;2022-10-16T09:27:15;4.80;;;1.05;;
23866;SDS011;12114;53.404;-1.502;2022-10-16T09:29:40;2.38;;;0.85;;
23866;SDS011;12114;53.404;-1.502;2022-10-16T09:32:13;6.75;;;0.82;;
23866;SDS011;12114;53.404;-1.502;2022-10-16T09:35:14;4.32;;;1.05;;
23866;SDS011;12114;53.404;-1.502;2022-10-16T09:37:31;6.55;;;0.88;;
23866;SDS011;12114;53.404;-1.502;2022-10-16T09:39:57;4.35;;;0.80;;
23866;SDS011;12114;53.404;-1.502;2022-10-16T09:42:31;6.32;;;0.80;;
23866;SDS011;12114;53.404;-1.502;2022-10-16T09:44:58;4.55;;;0.70;;
23866;SDS011;12114;53.404;-1.502;2022-10-16T09:47:25;7.03;;;0.95;;
23866;SDS011;12114;53.404;-1.502;2022-10-16T09:49:52;5.63;;;0.98;;
23866;SDS011;12114;53.404;-1.502;2022-10-16T09:52:18;7.05;;;1.13;;
23866;SDS011;12114;53.404;-1.502;2022-10-16T09:54:54;5.35;;;1.15;;
23866;SDS011;12114;53.404;-1.502;2022-10-16T09:57:20;4.72;;;1.15;;
23866;SDS011;12114;53.404;-1.502;2022-10-16T09:59:49;4.15;;;0.70;;
23866;SDS011;12114;53.404;-1.502;2022-10-16T10:02:15;3.15;;;0.63;;
23866;SDS011;12114;53.404;-1.502;2022-10-16T10:04:44;4.63;;;0.75;;
23866;SDS011;12114;53.404;-1.502;2022-10-16T10:07:20;6.53;;;0.70;;
23866;SDS011;12114;53.404;-1.502;2022-10-16T10:09:46;5.10;;;1.20;;
23866;SDS011;12114;53.404;-1.502;2022-10-16T10:12:25;7.72;;;0.88;;
23866;SDS011;12114;53.404;-1.502;2022-10-16T10:14:51;5.95;;;0.73;;
23866;SDS011;12114;53.404;-1.502;2022-10-16T10:17:17;4.72;;;0.77;;
23866;SDS011;12114;53.404;-1.502;2022-10-16T10:19:51;5.68;;;0.90;;
23866;SDS011;12114;53.404;-1.502;2022-10-16T10:30:15;6.15;;;1.23;;
23866;SDS011;12114;53.404;-1.502;2022-10-16T10:35:41;4.10;;;0.80;;
23866;SDS011;12114;53.404;-1.502;2022-10-16T10:43:16;2.97;;;0.60;;
23866;SDS011;12114;53.404;-1.502;2022-10-16T10:45:47;6.15;;;0.90;;
23866;SDS011;12114;53.404;-1.502;2022-10-16T10:48:17;4.72;;;0.77;;
23866;SDS011;12114;53.404;-1.502;2022-10-16T10:50:47;8.30;;;1.15;;
23866;SDS011;12114;53.404;-1.502;2022-10-16T11:00:55;4.47;;;0.73;;
23866;SDS011;12114;53.404;-1.502;2022-10-16T11:06:08;4.28;;;0.70;;
23866;SDS011;12114;53.404;-1.502;2022-10-16T11:08:49;4.63;;;0.70;;
23866;SDS011;12114;53.404;-1.502;2022-10-16T11:11:18;4.65;;;0.60;;
23866;SDS011;12114;53.404;-1.502;2022-10-16T11:16:21;4.85;;;0.60;;
23866;SDS011;12114;53.404;-1.502;2022-10-16T11:21:14;4.28;;;0.60;;
23866;SDS011;12114;53.404;-1.502;2022-10-16T11:26:08;5.47;;;0.80;;
23866;SDS011;12114;53.404;-1.502;2022-10-16T11:28:37;3.67;;;0.60;;
23866;SDS011;12114;53.404;-1.502;2022-10-16T11:31:15;3.90;;;0.50;;
23866;SDS011;12114;53.404;-1.502;2022-10-16T11:33:47;3.40;;;0.50;;
23866;SDS011;12114;53.404;-1.502;2022-10-16T11:36:19;4.03;;;0.47;;
23866;SDS011;12114;53.404;-1.502;2022-10-16T11:43:41;5.03;;;0.68;;
23866;SDS011;12114;53.404;-1.502;2022-10-16T11:46:09;6.28;;;0.50;;
23866;SDS011;12114;53.404;-1.502;2022-10-16T11:48:38;3.88;;;0.60;;
23866;SDS011;12114;53.404;-1.502;2022-10-16T11:51:08;3.78;;;0.80;;
23866;SDS011;12114;53.404;-1.502;2022-10-16T11:53:46;2.97;;;0.60;;
23866;SDS011;12114;53.404;-1.502;2022-10-16T11:56:15;2.40;;;0.40;;
23866;SDS011;12114;53.404;-1.502;2022-10-16T11:58:52;5.30;;;0.60;;
23866;SDS011;12114;53.404;-1.502;2022-10-16T12:01:31;2.05;;;0.60;;
23866;SDS011;12114;53.404;-1.502;2022-10-16T12:03:59;2.30;;;0.40;;
23866;SDS011;12114;53.404;-1.502;2022-10-16T12:06:44;3.63;;;0.70;;
23866;SDS011;12114;53.404;-1.502;2022-10-16T12:09:15;4.50;;;0.70;;
23866;SDS011;12114;53.404;-1.502;2022-10-16T12:11:42;4.28;;;0.52;;
23866;SDS011;12114;53.404;-1.502;2022-10-16T12:16:37;3.33;;;0.50;;
23866;SDS011;12114;53.404;-1.502;2022-10-16T12:19:15;1.42;;;0.65;;
23866;SDS011;12114;53.404;-1.502;2022-10-16T12:21:41;5.00;;;1.20;;
23866;SDS011;12114;53.404;-1.502;2022-10-16T12:24:18;2.67;;;0.65;;
23866;SDS011;12114;53.404;-1.502;2022-10-16T12:26:45;2.08;;;0.43;;
23866;SDS011;12114;53.404;-1.502;2022-10-16T12:29:56;3.08;;;0.70;;
23866;SDS011;12114;53.404;-1.502;2022-10-16T12:31:56;2.42;;;0.40;;
23866;SDS011;12114;53.404;-1.502;2022-10-16T12:34:25;3.03;;;0.50;;
23866;SDS011;12114;53.404;-1.502;2022-10-16T12:36:51;3.00;;;0.40;;
23866;SDS011;12114;53.404;-1.502;2022-10-16T12:39:22;2.72;;;0.40;;
23866;SDS011;12114;53.404;-1.502;2022-10-16T12:42:34;1.27;;;0.43;;
23866;SDS011;12114;53.404;-1.502;2022-10-16T12:44:35;3.72;;;0.73;;
23866;SDS011;12114;53.404;-1.502;2022-10-16T12:47:00;2.97;;;0.65;;
23866;SDS011;12114;53.404;-1.502;2022-10-16T12:49:36;4.72;;;0.70;;
23866;SDS011;12114;53.404;-1.502;2022-10-16T12:52:02;2.58;;;0.70;;
23866;SDS011;12114;53.404;-1.502;2022-10-16T12:54:36;2.33;;;0.60;;
23866;SDS011;12114;53.404;-1.502;2022-10-16T13:09:55;3.65;;;0.98;;
23866;SDS011;12114;53.404;-1.502;2022-10-16T13:17:36;2.33;;;0.57;;
23866;SDS011;12114;53.404;-1.502;2022-10-16T13:20:12;3.83;;;0.40;;
23866;SDS011;12114;53.404;-1.502;2022-10-16T13:22:56;3.27;;;0.60;;
23866;SDS011;12114;53.404;-1.502;2022-10-16T13:27:54;4.68;;;0.70;;
23866;SDS011;12114;53.404;-1.502;2022-10-16T13:30:23;3.60;;;0.43;;
23866;SDS011;12114;53.404;-1.502;2022-10-16T13:32:50;2.85;;;0.50;;
23866;SDS011;12114;53.404;-1.502;2022-10-16T13:35:19;7.50;;;0.70;;
23866;SDS011;12114;53.404;-1.502;2022-10-16T13:37:45;1.35;;;0.60;;
23866;SDS011;12114;53.404;-1.502;2022-10-16T13:40:21;8.43;;;1.33;;
23866;SDS011;12114;53.404;-1.502;2022-10-16T13:42:47;2.35;;;0.55;;
23866;SDS011;12114;53.404;-1.502;2022-10-16T13:45:22;3.33;;;0.52;;
23866;SDS011;12114;53.404;-1.502;2022-10-16T13:48:01;7.43;;;1.00;;
23866;SDS011;12114;53.404;-1.502;2022-10-16T13:50:26;2.63;;;0.80;;
23866;SDS011;12114;53.404;-1.502;2022-10-16T13:53:02;3.95;;;0.80;;
23866;SDS011;12114;53.404;-1.502;2022-10-16T13:55:27;2.33;;;0.80;;
23866;SDS011;12114;53.404;-1.502;2022-10-16T13:57:53;4.82;;;1.10;;
23866;SDS011;12114;53.404;-1.502;2022-10-16T14:00:29;3.53;;;0.70;;
23866;SDS011;12114;53.404;-1.502;2022-10-16T14:02:57;4.55;;;0.85;;
23866;SDS011;12114;53.404;-1.502;2022-10-16T14:05:23;5.50;;;0.88;;
23866;SDS011;12114;53.404;-1.502;2022-10-16T14:07:49;3.22;;;0.73;;
23866;SDS011;12114;53.404;-1.502;2022-10-16T14:10:26;2.38;;;0.60;;
23866;SDS011;12114;53.404;-1.502;2022-10-16T14:12:56;3.47;;;0.70;;
23866;SDS011;12114;53.404;-1.502;2022-10-16T14:15:22;5.18;;;1.35;;
23866;SDS011;12114;53.404;-1.502;2022-10-16T14:17:49;10.55;;;0.93;;
23866;SDS011;12114;53.404;-1.502;2022-10-16T14:20:15;4.30;;;0.85;;
23866;SDS011;12114;53.404;-1.502;2022-10-16T14:22:41;3.45;;;0.60;;
23866;SDS011;12114;53.404;-1.502;2022-10-16T14:27:42;2.55;;;0.60;;
23866;SDS011;12114;53.404;-1.502;2022-10-16T14:32:34;5.07;;;1.15;;
23866;SDS011;12114;53.404;-1.502;2022-10-16T14:34:59;3.50;;;0.70;;
23866;SDS011;12114;53.404;-1.502;2022-10-16T14:37:25;2.85;;;0.52;;
23866;SDS011;12114;53.404;-1.502;2022-10-16T14:39:51;4.28;;;0.60;;
23866;SDS011;12114;53.404;-1.502;2022-10-16T14:42:18;4.07;;;1.42;;
23866;SDS011;12114;53.404;-1.502;2022-10-16T14:44:44;8.07;;;1.52;;
23866;SDS011;12114;53.404;-1.502;2022-10-16T14:47:13;3.45;;;0.75;;
23866;SDS011;12114;53.404;-1.502;2022-10-16T14:49:39;5.97;;;0.88;;
23866;SDS011;12114;53.404;-1.502;2022-10-16T14:52:12;4.00;;;0.70;;
23866;SDS011;12114;53.404;-1.502;2022-10-16T14:54:39;2.25;;;0.88;;
23866;SDS011;12114;53.404;-1.502;2022-10-16T14:57:05;3.85;;;0.80;;
23866;SDS011;12114;53.404;-1.502;2022-10-16T14:59:35;3.28;;;0.82;;
23866;SDS011;12114;53.404;-1.502;2022-10-16T15:02:02;3.53;;;0.63;;
23866;SDS011;12114;53.404;-1.502;2022-10-16T15:04:40;2.63;;;0.60;;
23866;SDS011;12114;53.404;-1.502;2022-10-16T15:07:07;6.15;;;0.82;;
23866;SDS011;12114;53.404;-1.502;2022-10-16T15:09:32;3.58;;;0.70;;
23866;SDS011;12114;53.404;-1.502;2022-10-16T15:11:58;3.83;;;0.80;;
23866;SDS011;12114;53.404;-1.502;2022-10-16T15:14:23;4.57;;;0.70;;
23866;SDS011;12114;53.404;-1.502;2022-10-16T15:16:50;3.33;;;0.63;;
23866;SDS011;12114;53.404;-1.502;2022-10-16T15:19:15;2.10;;;0.73;;
23866;SDS011;12114;53.404;-1.502;2022-10-16T15:21:41;4.55;;;0.80;;
23866;SDS011;12114;53.404;-1.502;2022-10-16T15:24:08;3.20;;;0.90;;
23866;SDS011;12114;53.404;-1.502;2022-10-16T15:26:34;5.25;;;0.70;;
23866;SDS011;12114;53.404;-1.502;2022-10-16T15:28:59;2.65;;;0.52;;
23866;SDS011;12114;53.404;-1.502;2022-10-16T15:31:25;1.40;;;0.52;;
23866;SDS011;12114;53.404;-1.502;2022-10-16T15:33:51;5.68;;;0.98;;
23866;SDS011;12114;53.404;-1.502;2022-10-16T15:36:41;3.33;;;0.70;;
23866;SDS011;12114;53.404;-1.502;2022-10-16T15:39:15;2.00;;;0.80;;
23866;SDS011;12114;53.404;-1.502;2022-10-16T15:41:41;5.28;;;0.90;;
23866;SDS011;12114;53.404;-1.502;2022-10-16T15:44:07;5.90;;;1.20;;
23866;SDS011;12114;53.404;-1.502;2022-10-16T15:46:32;3.42;;;1.08;;
23866;SDS011;12114;53.404;-1.502;2022-10-16T15:48:59;3.72;;;1.20;;
23866;SDS011;12114;53.404;-1.502;2022-10-16T15:51:24;5.15;;;1.00;;
23866;SDS011;12114;53.404;-1.502;2022-10-16T15:53:52;7.85;;;1.15;;
23866;SDS011;12114;53.404;-1.502;2022-10-16T15:56:17;3.47;;;0.88;;
23866;SDS011;12114;53.404;-1.502;2022-10-16T15:58:43;4.93;;;1.20;;
23866;SDS011;12114;53.404;-1.502;2022-10-16T16:01:08;5.90;;;1.20;;
23866;SDS011;12114;53.404;-1.502;2022-10-16T16:03:36;3.65;;;1.42;;
23866;SDS011;12114;53.404;-1.502;2022-10-16T16:06:05;5.72;;;1.45;;
23866;SDS011;12114;53.404;-1.502;2022-10-16T16:08:32;6.07;;;1.48;;
23866;SDS011;12114;53.404;-1.502;2022-10-16T16:10:59;7.38;;;1.73;;
23866;SDS011;12114;53.404;-1.502;2022-10-16T16:13:24;10.90;;;2.47;;
23866;SDS011;12114;53.404;-1.502;2022-10-16T16:15:51;6.07;;;1.92;;
23866;SDS011;12114;53.404;-1.502;2022-10-16T16:18:16;6.05;;;2.00;;
23866;SDS011;12114;53.404;-1.502;2022-10-16T16:20:41;5.30;;;1.85;;